sensor_id;sensor_type;location;lat;lon;timestamp;temperature;humidity
39919;DHT22;25589;51.552;13.424;2022-07-23T00:01:29;21.70;99.90
39919;DHT22;25589;51.552;13.424;2022-07-23T00:03:55;21.70;99.90
39919;DHT22;25589;51.552;13.424;2022-07-23T00:06:21;21.70;99.90
39919;DHT22;25589;51.552;13.424;2022-07-23T00:08:47;21.70;99.90
39919;DHT22;25589;51.552;13.424;2022-07-23T00:11:12;21.70;99.90
39919;DHT22;25589;51.552;13.424;2022-07-23T00:13:38;21.70;99.90
39919;DHT22;25589;51.552;13.424;2022-07-23T00:16:04;21.80;99.90
39919;DHT22;25589;51.552;13.424;2022-07-23T00:18:29;21.80;99.90
39919;DHT22;25589;51.552;13.424;2022-07-23T00:20:55;21.70;99.90
39919;DHT22;25589;51.552;13.424;2022-07-23T00:23:20;21.70;99.90
39919;DHT22;25589;51.552;13.424;2022-07-23T00:25:46;21.70;99.90
39919;DHT22;25589;51.552;13.424;2022-07-23T00:28:11;21.70;99.90
39919;DHT22;25589;51.552;13.424;2022-07-23T00:30:37;21.70;99.90
39919;DHT22;25589;51.552;13.424;2022-07-23T00:33:05;21.70;99.90
39919;DHT22;25589;51.552;13.424;2022-07-23T00:35:32;21.70;99.90
39919;DHT22;25589;51.552;13.424;2022-07-23T00:37:58;21.60;99.90
39919;DHT22;25589;51.552;13.424;2022-07-23T00:40:24;21.60;99.90
39919;DHT22;25589;51.552;13.424;2022-07-23T00:42:50;21.60;99.90
39919;DHT22;25589;51.552;13.424;2022-07-23T00:45:16;21.40;99.90
39919;DHT22;25589;51.552;13.424;2022-07-23T00:47:41;21.40;99.90
39919;DHT22;25589;51.552;13.424;2022-07-23T00:50:07;21.50;99.90
39919;DHT22;25589;51.552;13.424;2022-07-23T00:52:34;21.40;99.90
39919;DHT22;25589;51.552;13.424;2022-07-23T00:54:59;21.40;99.90
39919;DHT22;25589;51.552;13.424;2022-07-23T00:57:25;21.40;99.90
39919;DHT22;25589;51.552;13.424;2022-07-23T00:59:51;21.50;99.90
39919;DHT22;25589;51.552;13.424;2022-07-23T01:02:17;21.40;99.90
39919;DHT22;25589;51.552;13.424;2022-07-23T01:04:42;21.30;99.90
39919;DHT22;25589;51.552;13.424;2022-07-23T01:07:08;21.30;99.90
39919;DHT22;25589;51.552;13.424;2022-07-23T01:09:33;21.30;99.90
39919;DHT22;25589;51.552;13.424;2022-07-23T01:11:59;21.30;99.90
39919;DHT22;25589;51.552;13.424;2022-07-23T01:14:25;21.30;99.90
39919;DHT22;25589;51.552;13.424;2022-07-23T01:16:50;21.30;99.90
39919;DHT22;25589;51.552;13.424;2022-07-23T01:19:17;21.30;99.90
39919;DHT22;25589;51.552;13.424;2022-07-23T01:21:43;21.30;99.90
39919;DHT22;25589;51.552;13.424;2022-07-23T01:24:10;21.30;99.90
39919;DHT22;25589;51.552;13.424;2022-07-23T01:26:41;21.20;99.90
39919;DHT22;25589;51.552;13.424;2022-07-23T01:29:08;21.20;99.90
39919;DHT22;25589;51.552;13.424;2022-07-23T01:31:34;21.20;99.90
39919;DHT22;25589;51.552;13.424;2022-07-23T01:34:00;21.20;99.90
39919;DHT22;25589;51.552;13.424;2022-07-23T01:36:25;21.20;99.90
39919;DHT22;25589;51.552;13.424;2022-07-23T01:38:51;21.20;99.90
39919;DHT22;25589;51.552;13.424;2022-07-23T01:41:17;21.10;99.90
39919;DHT22;25589;51.552;13.424;2022-07-23T01:43:43;21.10;99.90
39919;DHT22;25589;51.552;13.424;2022-07-23T01:46:09;21.10;99.90
39919;DHT22;25589;51.552;13.424;2022-07-23T01:48:40;21.10;99.90
39919;DHT22;25589;51.552;13.424;2022-07-23T01:51:28;21.10;99.90
39919;DHT22;25589;51.552;13.424;2022-07-23T01:54:01;21.10;99.90
39919;DHT22;25589;51.552;13.424;2022-07-23T01:56:27;21.10;99.90
39919;DHT22;25589;51.552;13.424;2022-07-23T01:58:52;21.00;99.90
39919;DHT22;25589;51.552;13.424;2022-07-23T02:01:19;21.00;99.90
39919;DHT22;25589;51.552;13.424;2022-07-23T02:03:44;21.00;99.90
39919;DHT22;25589;51.552;13.424;2022-07-23T02:06:10;21.10;99.90
39919;DHT22;25589;51.552;13.424;2022-07-23T02:08:35;21.00;99.90
39919;DHT22;25589;51.552;13.424;2022-07-23T02:11:01;21.00;99.90
39919;DHT22;25589;51.552;13.424;2022-07-23T02:13:26;21.00;99.90
39919;DHT22;25589;51.552;13.424;2022-07-23T02:15:53;21.00;99.90
39919;DHT22;25589;51.552;13.424;2022-07-23T02:18:19;20.90;99.90
39919;DHT22;25589;51.552;13.424;2022-07-23T02:20:44;20.90;99.90
39919;DHT22;25589;51.552;13.424;2022-07-23T02:23:10;20.90;99.90
39919;DHT22;25589;51.552;13.424;2022-07-23T02:25:35;21.00;99.90
39919;DHT22;25589;51.552;13.424;2022-07-23T02:28:01;21.00;99.90
39919;DHT22;25589;51.552;13.424;2022-07-23T02:30:27;21.00;99.90
39919;DHT22;25589;51.552;13.424;2022-07-23T02:32:52;21.00;99.90
39919;DHT22;25589;51.552;13.424;2022-07-23T02:35:18;21.00;99.90
39919;DHT22;25589;51.552;13.424;2022-07-23T02:37:43;20.90;99.90
39919;DHT22;25589;51.552;13.424;2022-07-23T02:40:09;21.00;99.90
39919;DHT22;25589;51.552;13.424;2022-07-23T02:42:38;21.00;99.90
39919;DHT22;25589;51.552;13.424;2022-07-23T02:45:04;21.10;99.90
39919;DHT22;25589;51.552;13.424;2022-07-23T02:47:29;21.10;99.90
39919;DHT22;25589;51.552;13.424;2022-07-23T02:49:57;21.10;99.90
39919;DHT22;25589;51.552;13.424;2022-07-23T02:52:23;21.00;99.90
39919;DHT22;25589;51.552;13.424;2022-07-23T02:54:48;20.90;99.90
39919;DHT22;25589;51.552;13.424;2022-07-23T02:57:15;20.90;99.90
39919;DHT22;25589;51.552;13.424;2022-07-23T02:59:41;21.00;99.90
39919;DHT22;25589;51.552;13.424;2022-07-23T03:02:07;21.00;99.90
39919;DHT22;25589;51.552;13.424;2022-07-23T03:04:32;20.90;99.90
39919;DHT22;25589;51.552;13.424;2022-07-23T03:06:58;20.80;99.90
39919;DHT22;25589;51.552;13.424;2022-07-23T03:09:24;20.70;99.90
39919;DHT22;25589;51.552;13.424;2022-07-23T03:11:51;20.70;99.90
39919;DHT22;25589;51.552;13.424;2022-07-23T03:14:18;20.70;99.90
39919;DHT22;25589;51.552;13.424;2022-07-23T03:16:44;20.70;99.90
39919;DHT22;25589;51.552;13.424;2022-07-23T03:19:09;20.70;99.90
39919;DHT22;25589;51.552;13.424;2022-07-23T03:21:35;20.70;99.90
39919;DHT22;25589;51.552;13.424;2022-07-23T03:24:04;20.60;99.90
39919;DHT22;25589;51.552;13.424;2022-07-23T03:26:29;20.50;99.90
39919;DHT22;25589;51.552;13.424;2022-07-23T03:28:55;20.40;99.90
39919;DHT22;25589;51.552;13.424;2022-07-23T03:31:21;20.30;99.90
39919;DHT22;25589;51.552;13.424;2022-07-23T03:33:46;20.30;99.90
39919;DHT22;25589;51.552;13.424;2022-07-23T03:36:12;20.20;99.90
39919;DHT22;25589;51.552;13.424;2022-07-23T03:38:40;20.10;99.90
39919;DHT22;25589;51.552;13.424;2022-07-23T03:41:06;19.90;99.90
39919;DHT22;25589;51.552;13.424;2022-07-23T03:43:32;19.80;99.90
39919;DHT22;25589;51.552;13.424;2022-07-23T03:45:58;19.80;99.90
39919;DHT22;25589;51.552;13.424;2022-07-23T03:48:24;19.60;99.90
39919;DHT22;25589;51.552;13.424;2022-07-23T03:50:49;19.60;99.90
39919;DHT22;25589;51.552;13.424;2022-07-23T03:53:15;19.70;99.90
39919;DHT22;25589;51.552;13.424;2022-07-23T03:55:40;19.60;99.90
39919;DHT22;25589;51.552;13.424;2022-07-23T03:58:06;19.60;99.90
39919;DHT22;25589;51.552;13.424;2022-07-23T04:00:31;19.50;99.90
39919;DHT22;25589;51.552;13.424;2022-07-23T04:02:57;19.40;99.90
39919;DHT22;25589;51.552;13.424;2022-07-23T04:05:22;19.40;99.90
39919;DHT22;25589;51.552;13.424;2022-07-23T04:07:52;19.50;99.90
39919;DHT22;25589;51.552;13.424;2022-07-23T04:10:18;19.70;99.90
39919;DHT22;25589;51.552;13.424;2022-07-23T04:12:43;19.60;99.90
39919;DHT22;25589;51.552;13.424;2022-07-23T04:15:09;19.60;99.90
39919;DHT22;25589;51.552;13.424;2022-07-23T04:17:35;19.70;99.90
39919;DHT22;25589;51.552;13.424;2022-07-23T04:20:01;19.70;99.90
39919;DHT22;25589;51.552;13.424;2022-07-23T04:22:33;19.70;99.90
39919;DHT22;25589;51.552;13.424;2022-07-23T04:24:59;19.60;99.90
39919;DHT22;25589;51.552;13.424;2022-07-23T04:27:24;19.50;99.90
39919;DHT22;25589;51.552;13.424;2022-07-23T04:29:50;19.60;99.90
39919;DHT22;25589;51.552;13.424;2022-07-23T04:32:15;19.60;99.90
39919;DHT22;25589;51.552;13.424;2022-07-23T04:34:41;19.60;99.90
39919;DHT22;25589;51.552;13.424;2022-07-23T04:37:07;19.60;99.90
39919;DHT22;25589;51.552;13.424;2022-07-23T04:39:34;19.60;99.90
39919;DHT22;25589;51.552;13.424;2022-07-23T04:42:00;19.60;99.90
39919;DHT22;25589;51.552;13.424;2022-07-23T04:44:26;19.60;99.90
39919;DHT22;25589;51.552;13.424;2022-07-23T04:46:52;19.60;99.90
39919;DHT22;25589;51.552;13.424;2022-07-23T04:49:18;19.60;99.90
39919;DHT22;25589;51.552;13.424;2022-07-23T04:51:43;19.70;99.90
39919;DHT22;25589;51.552;13.424;2022-07-23T04:54:09;19.70;99.90
39919;DHT22;25589;51.552;13.424;2022-07-23T04:56:35;19.70;99.90
39919;DHT22;25589;51.552;13.424;2022-07-23T04:59:00;19.70;99.90
39919;DHT22;25589;51.552;13.424;2022-07-23T05:01:27;19.80;99.90
39919;DHT22;25589;51.552;13.424;2022-07-23T05:03:53;19.90;99.90
39919;DHT22;25589;51.552;13.424;2022-07-23T05:06:18;20.00;99.90
39919;DHT22;25589;51.552;13.424;2022-07-23T05:08:44;20.10;99.90
39919;DHT22;25589;51.552;13.424;2022-07-23T05:11:10;20.20;99.90
39919;DHT22;25589;51.552;13.424;2022-07-23T05:13:36;20.20;99.90
39919;DHT22;25589;51.552;13.424;2022-07-23T05:16:04;20.10;99.90
39919;DHT22;25589;51.552;13.424;2022-07-23T05:18:31;19.90;99.90
39919;DHT22;25589;51.552;13.424;2022-07-23T05:20:56;19.90;99.90
39919;DHT22;25589;51.552;13.424;2022-07-23T05:23:22;20.00;99.90
39919;DHT22;25589;51.552;13.424;2022-07-23T05:25:48;20.00;99.90
39919;DHT22;25589;51.552;13.424;2022-07-23T05:28:15;20.00;99.90
39919;DHT22;25589;51.552;13.424;2022-07-23T05:30:42;20.10;99.90
39919;DHT22;25589;51.552;13.424;2022-07-23T05:33:11;20.10;99.90
39919;DHT22;25589;51.552;13.424;2022-07-23T05:35:36;19.90;99.90
39919;DHT22;25589;51.552;13.424;2022-07-23T05:38:25;19.80;99.90
39919;DHT22;25589;51.552;13.424;2022-07-23T05:40:52;19.70;99.90
39919;DHT22;25589;51.552;13.424;2022-07-23T05:43:18;19.70;99.90
39919;DHT22;25589;51.552;13.424;2022-07-23T05:45:43;19.60;99.90
39919;DHT22;25589;51.552;13.424;2022-07-23T05:48:09;19.60;99.90
39919;DHT22;25589;51.552;13.424;2022-07-23T05:50:42;19.60;99.90
39919;DHT22;25589;51.552;13.424;2022-07-23T05:53:18;19.70;99.90
39919;DHT22;25589;51.552;13.424;2022-07-23T05:55:58;19.70;99.90
39919;DHT22;25589;51.552;13.424;2022-07-23T05:58:24;19.80;99.90
39919;DHT22;25589;51.552;13.424;2022-07-23T06:00:49;19.70;99.90
39919;DHT22;25589;51.552;13.424;2022-07-23T06:03:15;19.70;99.90
39919;DHT22;25589;51.552;13.424;2022-07-23T06:05:40;19.60;99.90
39919;DHT22;25589;51.552;13.424;2022-07-23T06:08:07;19.80;99.90
39919;DHT22;25589;51.552;13.424;2022-07-23T06:10:32;19.80;99.90
39919;DHT22;25589;51.552;13.424;2022-07-23T06:12:58;19.70;99.90
39919;DHT22;25589;51.552;13.424;2022-07-23T06:15:24;19.80;99.90
39919;DHT22;25589;51.552;13.424;2022-07-23T06:17:50;19.70;99.90
39919;DHT22;25589;51.552;13.424;2022-07-23T06:20:16;19.70;99.90
39919;DHT22;25589;51.552;13.424;2022-07-23T06:22:41;19.70;99.90
39919;DHT22;25589;51.552;13.424;2022-07-23T06:25:07;19.90;99.90
39919;DHT22;25589;51.552;13.424;2022-07-23T06:27:32;20.00;99.90
39919;DHT22;25589;51.552;13.424;2022-07-23T06:29:58;20.00;99.90
39919;DHT22;25589;51.552;13.424;2022-07-23T06:32:23;20.10;99.90
39919;DHT22;25589;51.552;13.424;2022-07-23T06:34:49;20.20;99.90
39919;DHT22;25589;51.552;13.424;2022-07-23T06:37:14;20.30;99.90
39919;DHT22;25589;51.552;13.424;2022-07-23T06:39:40;20.50;99.90
39919;DHT22;25589;51.552;13.424;2022-07-23T06:42:05;20.70;99.90
39919;DHT22;25589;51.552;13.424;2022-07-23T06:44:54;20.90;99.90
39919;DHT22;25589;51.552;13.424;2022-07-23T06:47:20;21.00;99.90
39919;DHT22;25589;51.552;13.424;2022-07-23T06:49:45;21.20;99.90
39919;DHT22;25589;51.552;13.424;2022-07-23T06:52:11;21.30;99.90
39919;DHT22;25589;51.552;13.424;2022-07-23T06:54:36;21.30;99.90
39919;DHT22;25589;51.552;13.424;2022-07-23T06:57:02;21.40;99.90
39919;DHT22;25589;51.552;13.424;2022-07-23T06:59:27;21.50;99.90
39919;DHT22;25589;51.552;13.424;2022-07-23T07:01:53;21.70;99.90
39919;DHT22;25589;51.552;13.424;2022-07-23T07:04:18;21.80;99.90
39919;DHT22;25589;51.552;13.424;2022-07-23T07:06:44;21.90;99.90
39919;DHT22;25589;51.552;13.424;2022-07-23T07:09:09;22.00;99.90
39919;DHT22;25589;51.552;13.424;2022-07-23T07:11:35;22.00;99.90
39919;DHT22;25589;51.552;13.424;2022-07-23T07:14:00;22.00;99.90
39919;DHT22;25589;51.552;13.424;2022-07-23T07:16:26;22.00;99.90
39919;DHT22;25589;51.552;13.424;2022-07-23T07:18:51;21.90;99.90
39919;DHT22;25589;51.552;13.424;2022-07-23T07:21:17;21.90;99.90
39919;DHT22;25589;51.552;13.424;2022-07-23T07:23:42;22.00;99.90
39919;DHT22;25589;51.552;13.424;2022-07-23T07:26:08;21.90;99.90
39919;DHT22;25589;51.552;13.424;2022-07-23T07:28:33;22.00;99.90
39919;DHT22;25589;51.552;13.424;2022-07-23T07:30:59;22.10;99.90
39919;DHT22;25589;51.552;13.424;2022-07-23T07:33:24;22.20;99.90
39919;DHT22;25589;51.552;13.424;2022-07-23T07:35:50;22.30;99.90
39919;DHT22;25589;51.552;13.424;2022-07-23T07:38:15;22.40;99.90
39919;DHT22;25589;51.552;13.424;2022-07-23T07:40:41;22.50;99.90
39919;DHT22;25589;51.552;13.424;2022-07-23T07:43:06;22.50;99.90
39919;DHT22;25589;51.552;13.424;2022-07-23T07:45:32;22.50;99.90
39919;DHT22;25589;51.552;13.424;2022-07-23T07:47:57;22.70;99.90
39919;DHT22;25589;51.552;13.424;2022-07-23T07:50:23;22.70;99.90
39919;DHT22;25589;51.552;13.424;2022-07-23T07:52:49;22.70;99.90
39919;DHT22;25589;51.552;13.424;2022-07-23T07:55:14;22.90;99.90
39919;DHT22;25589;51.552;13.424;2022-07-23T07:57:40;23.10;99.90
39919;DHT22;25589;51.552;13.424;2022-07-23T08:00:07;23.10;99.90
39919;DHT22;25589;51.552;13.424;2022-07-23T08:05:09;23.10;99.90
39919;DHT22;25589;51.552;13.424;2022-07-23T08:07:35;23.10;99.90
39919;DHT22;25589;51.552;13.424;2022-07-23T08:10:00;23.20;99.90
39919;DHT22;25589;51.552;13.424;2022-07-23T08:12:26;23.30;99.90
39919;DHT22;25589;51.552;13.424;2022-07-23T08:14:51;23.50;99.90
39919;DHT22;25589;51.552;13.424;2022-07-23T08:17:18;23.30;99.90
39919;DHT22;25589;51.552;13.424;2022-07-23T08:19:43;23.20;99.90
39919;DHT22;25589;51.552;13.424;2022-07-23T08:22:09;23.20;99.90
39919;DHT22;25589;51.552;13.424;2022-07-23T08:24:34;23.30;99.90
39919;DHT22;25589;51.552;13.424;2022-07-23T08:27:00;23.40;99.90
39919;DHT22;25589;51.552;13.424;2022-07-23T08:29:25;23.60;99.90
39919;DHT22;25589;51.552;13.424;2022-07-23T08:31:51;23.70;99.90
39919;DHT22;25589;51.552;13.424;2022-07-23T08:34:16;23.90;99.90
39919;DHT22;25589;51.552;13.424;2022-07-23T08:36:42;24.00;99.90
39919;DHT22;25589;51.552;13.424;2022-07-23T08:39:07;23.90;99.90
39919;DHT22;25589;51.552;13.424;2022-07-23T08:41:33;23.90;99.90
39919;DHT22;25589;51.552;13.424;2022-07-23T08:43:59;23.90;99.90
39919;DHT22;25589;51.552;13.424;2022-07-23T08:46:26;23.80;99.90
39919;DHT22;25589;51.552;13.424;2022-07-23T08:48:51;23.90;99.90
39919;DHT22;25589;51.552;13.424;2022-07-23T08:51:17;23.80;99.90
39919;DHT22;25589;51.552;13.424;2022-07-23T08:53:43;23.80;99.90
39919;DHT22;25589;51.552;13.424;2022-07-23T08:56:09;23.60;99.90
39919;DHT22;25589;51.552;13.424;2022-07-23T08:58:35;23.40;99.90
39919;DHT22;25589;51.552;13.424;2022-07-23T09:01:00;23.30;99.90
39919;DHT22;25589;51.552;13.424;2022-07-23T09:03:27;23.40;99.90
39919;DHT22;25589;51.552;13.424;2022-07-23T09:05:53;23.30;99.90
39919;DHT22;25589;51.552;13.424;2022-07-23T09:08:22;23.30;99.90
39919;DHT22;25589;51.552;13.424;2022-07-23T09:13:27;23.20;99.90
39919;DHT22;25589;51.552;13.424;2022-07-23T09:15:53;23.20;99.90
39919;DHT22;25589;51.552;13.424;2022-07-23T09:18:19;22.90;99.90
39919;DHT22;25589;51.552;13.424;2022-07-23T09:21:04;22.80;99.90
39919;DHT22;25589;51.552;13.424;2022-07-23T09:23:41;22.70;99.90
39919;DHT22;25589;51.552;13.424;2022-07-23T09:26:20;22.70;99.90
39919;DHT22;25589;51.552;13.424;2022-07-23T09:28:53;22.50;99.90
39919;DHT22;25589;51.552;13.424;2022-07-23T09:31:19;22.50;99.90
39919;DHT22;25589;51.552;13.424;2022-07-23T09:33:45;22.80;99.90
39919;DHT22;25589;51.552;13.424;2022-07-23T09:36:10;23.00;99.90
39919;DHT22;25589;51.552;13.424;2022-07-23T09:38:36;23.00;99.90
39919;DHT22;25589;51.552;13.424;2022-07-23T09:41:12;23.00;99.90
39919;DHT22;25589;51.552;13.424;2022-07-23T09:43:38;23.00;99.90
39919;DHT22;25589;51.552;13.424;2022-07-23T09:46:26;23.00;99.90
39919;DHT22;25589;51.552;13.424;2022-07-23T09:48:53;23.00;99.90
39919;DHT22;25589;51.552;13.424;2022-07-23T09:51:19;23.20;99.90
39919;DHT22;25589;51.552;13.424;2022-07-23T09:53:49;23.20;99.90
39919;DHT22;25589;51.552;13.424;2022-07-23T09:56:15;23.30;99.90
39919;DHT22;25589;51.552;13.424;2022-07-23T09:58:41;23.30;99.90
39919;DHT22;25589;51.552;13.424;2022-07-23T10:01:14;23.40;99.90
39919;DHT22;25589;51.552;13.424;2022-07-23T10:03:40;23.50;99.90
39919;DHT22;25589;51.552;13.424;2022-07-23T10:06:24;23.30;99.90
39919;DHT22;25589;51.552;13.424;2022-07-23T10:09:10;23.10;99.90
39919;DHT22;25589;51.552;13.424;2022-07-23T10:12:10;23.00;99.90
39919;DHT22;25589;51.552;13.424;2022-07-23T10:14:53;22.90;99.90
39919;DHT22;25589;51.552;13.424;2022-07-23T10:17:18;22.80;99.90
39919;DHT22;25589;51.552;13.424;2022-07-23T10:19:44;22.80;99.90
39919;DHT22;25589;51.552;13.424;2022-07-23T10:22:11;22.90;99.90
39919;DHT22;25589;51.552;13.424;2022-07-23T10:27:34;22.80;99.90
39919;DHT22;25589;51.552;13.424;2022-07-23T10:32:53;23.10;99.90
39919;DHT22;25589;51.552;13.424;2022-07-23T10:35:29;23.30;99.90
39919;DHT22;25589;51.552;13.424;2022-07-23T10:38:00;23.30;99.90
39919;DHT22;25589;51.552;13.424;2022-07-23T10:40:27;23.30;99.90
39919;DHT22;25589;51.552;13.424;2022-07-23T10:42:54;23.40;99.90
39919;DHT22;25589;51.552;13.424;2022-07-23T10:47:51;23.60;99.90
39919;DHT22;25589;51.552;13.424;2022-07-23T10:52:43;23.70;99.90
39919;DHT22;25589;51.552;13.424;2022-07-23T10:57:54;23.90;99.90
39919;DHT22;25589;51.552;13.424;2022-07-23T11:00:30;23.90;99.90
39919;DHT22;25589;51.552;13.424;2022-07-23T11:03:04;23.80;99.90
39919;DHT22;25589;51.552;13.424;2022-07-23T11:05:45;23.60;99.90
39919;DHT22;25589;51.552;13.424;2022-07-23T11:08:20;23.60;99.90
39919;DHT22;25589;51.552;13.424;2022-07-23T11:10:49;23.60;99.90
39919;DHT22;25589;51.552;13.424;2022-07-23T11:16:22;23.60;99.90
39919;DHT22;25589;51.552;13.424;2022-07-23T11:32:04;22.80;99.90
39919;DHT22;25589;51.552;13.424;2022-07-23T11:34:44;22.60;99.90
39919;DHT22;25589;51.552;13.424;2022-07-23T11:37:31;22.50;99.90
39919;DHT22;25589;51.552;13.424;2022-07-23T11:39:58;22.40;99.90
39919;DHT22;25589;51.552;13.424;2022-07-23T11:42:24;22.40;99.90
39919;DHT22;25589;51.552;13.424;2022-07-23T11:44:50;22.40;99.90
39919;DHT22;25589;51.552;13.424;2022-07-23T11:47:20;22.50;99.90
39919;DHT22;25589;51.552;13.424;2022-07-23T11:49:53;22.50;99.90
39919;DHT22;25589;51.552;13.424;2022-07-23T11:52:19;22.50;99.90
39919;DHT22;25589;51.552;13.424;2022-07-23T11:54:53;22.70;99.90
39919;DHT22;25589;51.552;13.424;2022-07-23T11:57:20;22.90;99.90
39919;DHT22;25589;51.552;13.424;2022-07-23T11:59:47;23.10;99.90
39919;DHT22;25589;51.552;13.424;2022-07-23T12:02:15;23.30;99.90
39919;DHT22;25589;51.552;13.424;2022-07-23T12:04:41;23.30;99.90
39919;DHT22;25589;51.552;13.424;2022-07-23T12:07:27;23.60;99.90
39919;DHT22;25589;51.552;13.424;2022-07-23T12:09:59;23.90;99.90
39919;DHT22;25589;51.552;13.424;2022-07-23T12:12:26;24.20;99.90
39919;DHT22;25589;51.552;13.424;2022-07-23T12:14:56;24.50;99.90
39919;DHT22;25589;51.552;13.424;2022-07-23T12:17:30;24.60;99.90
39919;DHT22;25589;51.552;13.424;2022-07-23T12:19:57;24.60;99.90
39919;DHT22;25589;51.552;13.424;2022-07-23T12:22:24;24.50;99.90
39919;DHT22;25589;51.552;13.424;2022-07-23T12:24:54;24.40;99.90
39919;DHT22;25589;51.552;13.424;2022-07-23T12:27:20;24.30;99.90
39919;DHT22;25589;51.552;13.424;2022-07-23T12:29:46;24.10;99.90
39919;DHT22;25589;51.552;13.424;2022-07-23T12:32:22;24.20;99.90
39919;DHT22;25589;51.552;13.424;2022-07-23T12:34:49;24.20;99.90
39919;DHT22;25589;51.552;13.424;2022-07-23T12:37:29;24.30;99.90
39919;DHT22;25589;51.552;13.424;2022-07-23T12:39:54;24.50;99.90
39919;DHT22;25589;51.552;13.424;2022-07-23T12:42:20;24.40;99.90
39919;DHT22;25589;51.552;13.424;2022-07-23T12:47:30;24.60;99.90
39919;DHT22;25589;51.552;13.424;2022-07-23T12:49:55;24.70;99.90
39919;DHT22;25589;51.552;13.424;2022-07-23T12:52:21;24.90;99.90
39919;DHT22;25589;51.552;13.424;2022-07-23T12:54:46;25.00;99.90
39919;DHT22;25589;51.552;13.424;2022-07-23T12:57:12;25.10;99.90
39919;DHT22;25589;51.552;13.424;2022-07-23T12:59:38;25.20;99.90
39919;DHT22;25589;51.552;13.424;2022-07-23T13:02:03;25.30;99.90
39919;DHT22;25589;51.552;13.424;2022-07-23T13:04:29;25.40;99.90
39919;DHT22;25589;51.552;13.424;2022-07-23T13:06:57;25.30;99.90
39919;DHT22;25589;51.552;13.424;2022-07-23T13:09:27;25.20;99.90
39919;DHT22;25589;51.552;13.424;2022-07-23T13:11:53;25.40;99.90
39919;DHT22;25589;51.552;13.424;2022-07-23T13:14:19;25.70;99.90
39919;DHT22;25589;51.552;13.424;2022-07-23T13:16:45;25.90;99.90
39919;DHT22;25589;51.552;13.424;2022-07-23T13:19:11;26.10;99.70
39919;DHT22;25589;51.552;13.424;2022-07-23T13:21:37;26.30;99.70
39919;DHT22;25589;51.552;13.424;2022-07-23T13:24:02;26.30;99.20
39919;DHT22;25589;51.552;13.424;2022-07-23T13:26:28;26.10;98.60
39919;DHT22;25589;51.552;13.424;2022-07-23T13:28:53;25.70;98.60
39919;DHT22;25589;51.552;13.424;2022-07-23T13:31:19;25.70;98.60
39919;DHT22;25589;51.552;13.424;2022-07-23T13:33:45;25.60;97.60
39919;DHT22;25589;51.552;13.424;2022-07-23T13:36:11;25.30;96.30
39919;DHT22;25589;51.552;13.424;2022-07-23T13:38:36;25.10;97.20
39919;DHT22;25589;51.552;13.424;2022-07-23T13:41:02;25.00;97.90
39919;DHT22;25589;51.552;13.424;2022-07-23T13:43:28;25.10;97.80
39919;DHT22;25589;51.552;13.424;2022-07-23T13:45:54;25.10;97.80
39919;DHT22;25589;51.552;13.424;2022-07-23T13:48:20;25.10;98.10
39919;DHT22;25589;51.552;13.424;2022-07-23T13:50:45;25.20;98.10
39919;DHT22;25589;51.552;13.424;2022-07-23T13:53:13;25.40;98.20
39919;DHT22;25589;51.552;13.424;2022-07-23T13:55:39;25.50;97.80
39919;DHT22;25589;51.552;13.424;2022-07-23T13:58:05;25.50;97.60
39919;DHT22;25589;51.552;13.424;2022-07-23T14:00:31;25.30;97.90
39919;DHT22;25589;51.552;13.424;2022-07-23T14:02:58;25.30;97.80
39919;DHT22;25589;51.552;13.424;2022-07-23T14:05:24;25.20;97.90
39919;DHT22;25589;51.552;13.424;2022-07-23T14:07:49;25.30;98.10
39919;DHT22;25589;51.552;13.424;2022-07-23T14:10:17;25.30;97.70
39919;DHT22;25589;51.552;13.424;2022-07-23T14:12:43;25.60;97.80
39919;DHT22;25589;51.552;13.424;2022-07-23T14:15:09;26.10;97.50
39919;DHT22;25589;51.552;13.424;2022-07-23T14:17:38;26.40;96.50
39919;DHT22;25589;51.552;13.424;2022-07-23T14:20:04;26.70;95.70
39919;DHT22;25589;51.552;13.424;2022-07-23T14:22:30;27.20;95.40
39919;DHT22;25589;51.552;13.424;2022-07-23T14:24:56;27.30;94.50
39919;DHT22;25589;51.552;13.424;2022-07-23T14:27:23;27.50;94.30
39919;DHT22;25589;51.552;13.424;2022-07-23T14:29:48;27.70;93.90
39919;DHT22;25589;51.552;13.424;2022-07-23T14:32:14;27.80;93.20
39919;DHT22;25589;51.552;13.424;2022-07-23T14:34:39;28.00;93.00
39919;DHT22;25589;51.552;13.424;2022-07-23T14:37:05;28.00;92.10
39919;DHT22;25589;51.552;13.424;2022-07-23T14:39:30;28.20;91.90
39919;DHT22;25589;51.552;13.424;2022-07-23T14:41:56;28.10;91.60
39919;DHT22;25589;51.552;13.424;2022-07-23T14:44:21;28.30;91.40
39919;DHT22;25589;51.552;13.424;2022-07-23T14:46:47;28.80;91.00
39919;DHT22;25589;51.552;13.424;2022-07-23T14:49:12;28.90;90.50
39919;DHT22;25589;51.552;13.424;2022-07-23T14:51:38;28.80;90.10
39919;DHT22;25589;51.552;13.424;2022-07-23T14:54:04;29.00;88.80
39919;DHT22;25589;51.552;13.424;2022-07-23T14:56:29;29.10;88.30
39919;DHT22;25589;51.552;13.424;2022-07-23T14:58:55;28.90;87.90
39919;DHT22;25589;51.552;13.424;2022-07-23T15:01:23;28.60;88.40
39919;DHT22;25589;51.552;13.424;2022-07-23T15:03:49;28.40;88.30
39919;DHT22;25589;51.552;13.424;2022-07-23T15:06:15;28.40;87.80
39919;DHT22;25589;51.552;13.424;2022-07-23T15:08:41;28.30;87.80
39919;DHT22;25589;51.552;13.424;2022-07-23T15:11:06;28.40;87.70
39919;DHT22;25589;51.552;13.424;2022-07-23T15:13:34;28.90;87.40
39919;DHT22;25589;51.552;13.424;2022-07-23T15:16:00;29.10;85.10
39919;DHT22;25589;51.552;13.424;2022-07-23T15:18:25;29.40;83.50
39919;DHT22;25589;51.552;13.424;2022-07-23T15:20:51;29.40;82.40
39919;DHT22;25589;51.552;13.424;2022-07-23T15:23:16;29.40;81.60
39919;DHT22;25589;51.552;13.424;2022-07-23T15:25:42;29.40;81.80
39919;DHT22;25589;51.552;13.424;2022-07-23T15:28:07;29.80;81.30
39919;DHT22;25589;51.552;13.424;2022-07-23T15:30:33;29.40;81.20
39919;DHT22;25589;51.552;13.424;2022-07-23T15:32:58;29.40;81.80
39919;DHT22;25589;51.552;13.424;2022-07-23T15:35:24;29.80;81.30
39919;DHT22;25589;51.552;13.424;2022-07-23T15:37:49;29.90;80.50
39919;DHT22;25589;51.552;13.424;2022-07-23T15:40:15;29.90;78.90
39919;DHT22;25589;51.552;13.424;2022-07-23T15:42:40;29.70;78.20
39919;DHT22;25589;51.552;13.424;2022-07-23T15:45:06;30.10;78.20
39919;DHT22;25589;51.552;13.424;2022-07-23T15:47:33;30.40;75.40
39919;DHT22;25589;51.552;13.424;2022-07-23T15:49:59;30.20;75.00
39919;DHT22;25589;51.552;13.424;2022-07-23T15:52:24;29.80;76.70